< < Back
Terminal Aerodrome Forecast


Current Version              Previous Versions:   1  2  3  4  5  6  7  8  9  

Terminal Aerodrome Forecast

065
FTUS44 KBMX 170500
TAFMGM
TAF
KMGM 170520Z 1706/1806 09005KT P6SM BKN250
     FM171200 10012KT P6SM OVC035
     FM180000 09006KT P6SM BKN040=



Latest METAR

669
SAUS80 KWBC 171500 RRA
MTRMGM
METAR KMGM 171453Z 08012KT 10SM OVC050 14/05 A3035 RMK AO2 SLP275
T01440050 51015


USA.gov is the U.S. government's official web portal to all federal, state and local government web resources and services.